Overview Statistics Trail Chart Weather Telemetry Raw packets
 

This is the latest recevied weather packets stored in our database for station/object 9A7DI-13. If no packets are shown the sender has not sent any weather packets the latest 10 day(s).

<< 30 31 32 33 34 35 36 >>
Time Temp. Humidity Pressure Rain* Wind** Luminosity Snow
1788213408 22.22° C 82% 1023.7 hPa - - - -
1788212808 22.22° C 81% 1023.4 hPa - - - -
1788212208 22.78° C 73% 1023.2 hPa - - - -
1788211608 22.22° C 81% 1023.2 hPa - - - -
1788211008 22.78° C 81% 1023.2 hPa - - - -
1788210408 22.78° C 81% 1023.4 hPa - - - -
1788209808 23.33° C 76% 1023.2 hPa - - - -
1788209208 23.89° C 70% 1022.9 hPa - - - -
1788208608 24.44° C 67% 1023 hPa - - - -
1788208008 25° C 58% 1022.9 hPa - - - -
1788207408 25° C 56% 1022.1 hPa - - - -
1788206808 24.44° C 59% 1021.7 hPa - - - -
1788206208 23.89° C 63% 1021.5 hPa - - - -
1788205608 25° C 59% 1021.2 hPa - - - -
1788205008 25° C 58% 1021.2 hPa - - - -
1788204408 25° C 61% 1021.2 hPa - - - -
1788203808 24.44° C 59% 1021 hPa - - - -
1788203208 24.44° C 63% 1021 hPa - - - -
1788202609 25° C 59% 1020.9 hPa - - - -
1788202008 25.56° C 57% 1020.9 hPa - - - -
1788201408 26.11° C 54% 1020.8 hPa - - - -
1788200808 26.11° C 57% 1020.6 hPa - - - -
1788200209 27.22° C 53% 1020.7 hPa - - - -
1788199608 26.67° C 54% 1020.6 hPa - - - -
1788199009 27.22° C 52% 1020.6 hPa - - - -

* Rain since midnight (hover to see other rain measurements)
** Current wind speed in m/s (hover to see current wind gust speed)